Time;durP1;ratioP1;P1;durP2;ratioP2;P2;SDS_P1;SDS_P2;PMS_P1;PMS_P2;Temp;Humidity;BMP_temperature;BMP_pressure;BME280_temperature;BME280_humidity;BME280_pressure;Samples;Min_cycle;Max_cycle;Signal;HPM_P1;HPM_P2
2022/10/05 00:01:43;;;;;;;;;;;;;;;8.66;73.35;99313.19;5084655;28;20127;-81
2022/10/05 00:04:21;;;;;;;3.28;1.55;;;;;;;8.58;73.52;99291.63;5054163;28;20002;-80
2022/10/05 00:06:57;;;;;;;1.27;1.10;;;;;;;8.60;73.38;99300.25;5084928;28;20051;-81
2022/10/05 00:09:23;;;;;;;1.27;1.05;;;;;;;8.64;73.09;99306.25;5084017;28;20047;-82
2022/10/05 00:11:50;;;;;;;2.58;1.00;;;;;;;8.48;73.23;99296.03;5047288;28;20702;-81
2022/10/05 00:14:35;;;;;;;2.08;1.00;;;;;;;8.58;73.48;99309.78;5084990;28;20047;-81
2022/10/05 00:17:03;;;;;;;2.65;1.27;;;;;;;8.57;73.29;99300.28;5084947;28;20039;-82
2022/10/05 00:19:37;;;;;;;1.75;1.00;;;;;;;8.61;73.33;99301.97;5067523;28;20523;-81
2022/10/05 00:22:18;;;;;;;2.05;1.10;;;;;;;8.62;73.57;99288.13;5066655;28;20285;-81
2022/10/05 00:24:45;;;;;;;3.17;1.20;;;;;;;8.75;73.19;99301.84;5067649;28;20519;-81
2022/10/05 00:27:23;;;;;;;1.45;1.10;;;;;;;8.76;73.92;99274.16;5086393;28;20094;-81
2022/10/05 00:29:52;;;;;;;2.63;1.20;;;;;;;8.87;73.51;99295.69;5054587;28;20153;-79
2022/10/05 00:32:19;;;;;;;1.42;1.17;;;;;;;8.74;74.18;99264.66;5068090;28;20051;-80
2022/10/05 00:34:46;;;;;;;2.65;1.23;;;;;;;8.91;73.52;99283.53;5053458;28;20099;-80
2022/10/05 00:37:13;;;;;;;1.23;1.08;;;;;;;8.82;73.55;99279.31;5054856;28;20039;-81
2022/10/05 00:39:41;;;;;;;3.05;1.00;;;;;;;8.80;73.20;99292.31;5071941;28;20445;-81
2022/10/05 00:42:17;;;;;;;2.35;1.08;;;;;;;8.72;73.49;99294.09;5055902;28;20046;-82
2022/10/05 00:45:04;;;;;;;2.25;1.13;;;;;;;8.73;73.95;99295.81;5083287;28;20048;-80
2022/10/05 00:47:42;;;;;;;2.47;1.00;;;;;;;8.72;74.02;99297.53;5052708;28;20467;-81
2022/10/05 00:50:34;;;;;;;2.45;0.93;;;;;;;8.70;73.72;99298.44;5084939;28;20047;-81
2022/10/05 00:53:03;;;;;;;1.58;1.02;;;;;;;8.68;73.73;99305.38;5066821;28;20069;-80
2022/10/05 00:55:54;;;;;;;1.52;0.98;;;;;;;8.64;74.05;99304.56;5066116;28;20028;-81
2022/10/05 00:58:37;;;;;;;1.27;0.93;;;;;;;8.62;73.97;99303.69;5070026;28;20444;-82
2022/10/05 01:01:14;;;;;;;2.30;0.80;;;;;;;8.63;73.73;99308.00;5088588;28;20050;-80
2022/10/05 01:03:49;;;;;;;1.50;1.02;;;;;;;8.62;73.86;99301.09;5064339;28;20044;-80
2022/10/05 01:06:55;;;;;;;1.27;0.93;;;;;;;8.60;73.83;99289.88;5085753;28;20039;-82
2022/10/05 01:09:56;;;;;;;3.13;1.00;;;;;;;8.71;73.69;99316.59;5025595;28;20101;-80
2022/10/05 01:12:36;;;;;;;1.48;0.90;;;;;;;8.62;73.88;99308.00;5066354;28;20032;-81
2022/10/05 01:15:31;;;;;;;1.98;0.90;;;;;;;8.61;73.53;99312.34;5083599;28;20051;-81
2022/10/05 01:18:26;;;;;;;1.17;0.98;;;;;;;8.48;74.06;99287.38;5052822;28;20442;-81
2022/10/05 01:21:05;;;;;;;1.33;0.90;;;;;;;8.66;73.91;99308.00;5051522;28;20606;-81
2022/10/05 01:23:57;;;;;;;1.23;1.00;;;;;;;8.71;73.99;99315.72;5067287;28;20078;-82
2022/10/05 01:26:35;;;;;;;1.40;1.05;;;;;;;8.67;73.75;99317.50;5065200;28;20043;-81
2022/10/05 01:29:16;;;;;;;0.90;0.80;;;;;;;8.64;73.70;99319.22;5064724;28;20035;-81
2022/10/05 01:32:14;;;;;;;1.45;0.82;;;;;;;8.62;74.02;99314.06;5060643;28;20137;-82
2022/10/05 01:34:56;;;;;;;1.02;0.80;;;;;;;8.65;73.98;99311.47;5052495;28;20052;-82
2022/10/05 01:37:33;;;;;;;1.63;1.02;;;;;;;8.73;74.08;99317.41;5102914;28;20063;-81
2022/10/05 01:40:15;;;;;;;1.35;1.00;;;;;;;8.52;73.52;99284.78;5055133;28;20043;-81
2022/10/05 01:43:08;;;;;;;1.40;1.05;;;;;;;8.74;74.09;99319.13;5049867;28;20067;-81
2022/10/05 01:46:05;;;;;;;1.30;0.80;;;;;;;8.71;73.52;99318.31;5065701;28;20098;-82
2022/10/05 01:48:55;;;;;;;1.25;1.02;;;;;;;8.51;73.79;99295.13;5050371;28;20040;-80
2022/10/05 01:51:55;;;;;;;1.42;1.05;;;;;;;8.62;73.69;99306.28;5088861;28;20078;-81
2022/10/05 01:54:33;;;;;;;1.90;0.95;;;;;;;8.66;74.20;99312.31;5068310;28;20920;-81
2022/10/05 01:57:33;;;;;;;1.40;0.93;;;;;;;8.63;74.15;99315.78;5067285;28;20044;-81
2022/10/05 02:00:08;;;;;;;1.40;1.10;;;;;;;8.52;73.81;99307.22;5082718;28;20699;-82
2022/10/05 02:03:13;;;;;;;1.67;1.30;;;;;;;8.60;74.19;99315.81;5085926;28;20043;-81
2022/10/05 02:05:54;;;;;;;1.10;1.00;;;;;;;8.54;74.10;99315.84;5036181;28;20526;-80
2022/10/05 02:08:55;;;;;;;5.13;1.35;;;;;;;8.48;74.17;99318.50;5068524;28;20140;-80
2022/10/05 02:11:21;;;;;;;1.33;1.23;;;;;;;8.37;74.76;99306.47;5064203;28;20042;-82
2022/10/05 02:13:56;;;;;;;2.15;1.20;;;;;;;8.31;74.62;99290.94;5069816;28;20044;-81
2022/10/05 02:16:27;;;;;;;2.05;1.27;;;;;;;8.42;74.40;99319.38;5062677;28;20032;-80
2022/10/05 02:18:58;;;;;;;1.48;1.23;;;;;;;8.41;74.66;99320.25;5055002;28;20558;-81
2022/10/05 02:21:26;;;;;;;1.83;1.30;;;;;;;8.36;74.94;99296.97;5065525;28;20094;-81
2022/10/05 02:23:56;;;;;;;1.88;1.40;;;;;;;8.48;74.99;99318.50;5065232;28;20077;-81
2022/10/05 02:26:24;;;;;;;3.83;1.60;;;;;;;7.99;74.86;99227.28;5052745;28;20046;-81
2022/10/05 02:28:56;;;;;;;1.95;1.65;;;;;;;8.42;75.10;99302.09;5081580;28;20045;-82
2022/10/05 02:31:39;;;;;;;1.92;1.50;;;;;;;8.41;75.26;99309.88;5048181;28;20071;-80
2022/10/05 02:34:38;;;;;;;1.50;1.38;;;;;;;8.51;75.13;99319.34;5065629;28;20498;-81
2022/10/05 02:37:30;;;;;;;1.85;1.48;;;;;;;8.55;75.22;99317.59;5071047;28;20103;-81
2022/10/05 02:40:21;;;;;;;1.73;1.55;;;;;;;8.52;75.39;99313.28;5061863;28;20040;-80
2022/10/05 02:43:22;;;;;;;2.65;1.55;;;;;;;8.42;75.30;99306.41;5082869;28;20050;-81
2022/10/05 02:45:56;;;;;;;2.55;1.40;;;;;;;8.47;75.66;99309.84;5052702;28;20098;-80
2022/10/05 02:48:41;;;;;;;1.92;1.30;;;;;;;8.44;75.45;99305.56;5082419;28;20107;-81
2022/10/05 02:51:21;;;;;;;2.25;1.30;;;;;;;8.54;75.75;99321.03;5070767;28;20070;-80
2022/10/05 02:54:08;;;;;;;1.63;1.40;;;;;;;8.54;75.54;99328.81;5062204;28;20093;-81
2022/10/05 02:56:46;;;;;;;5.75;1.60;;;;;;;8.52;75.78;99328.84;5071968;28;20040;-81
2022/10/05 02:59:33;;;;;;;1.85;1.52;;;;;;;8.50;75.83;99330.59;5068492;28;21205;-80
2022/10/05 03:02:25;;;;;;;2.63;1.40;;;;;;;8.44;75.77;99328.88;5069649;28;20078;-80
2022/10/05 03:04:58;;;;;;;2.40;1.50;;;;;;;8.42;75.97;99324.56;5081456;28;20556;-80
2022/10/05 03:07:46;;;;;;;2.28;1.40;;;;;;;8.41;76.06;99325.44;5051337;28;20036;-84
2022/10/05 03:10:33;;;;;;;1.85;1.60;;;;;;;8.23;75.91;99308.31;5063258;28;20040;-81
2022/10/05 03:13:07;;;;;;;1.38;1.27;;;;;;;8.28;75.75;99328.13;5050025;28;20064;-80
2022/10/05 03:15:39;;;;;;;2.75;1.83;;;;;;;8.32;76.62;99341.91;5050334;28;20055;-80
2022/10/05 03:18:37;;;;;;;2.00;1.60;;;;;;;8.26;76.13;99345.41;5051549;28;20048;-79
2022/10/05 03:21:21;;;;;;;1.98;1.75;;;;;;;8.14;76.11;99324.78;5079989;28;20045;-81
2022/10/05 03:24:25;;;;;;;2.67;1.92;;;;;;;8.29;76.62;99344.53;5081888;28;20046;-78
2022/10/05 03:27:17;;;;;;;1.80;1.55;;;;;;;8.34;76.61;99339.34;5083205;28;20036;-82
2022/10/05 03:30:16;;;;;;;2.00;1.73;;;;;;;8.33;76.67;99346.25;5084741;28;20055;-81
2022/10/05 03:32:59;;;;;;;3.28;1.83;;;;;;;8.33;76.34;99343.66;5071203;28;20812;-83
2022/10/05 03:35:49;;;;;;;4.75;1.90;;;;;;;8.34;76.51;99344.53;5070229;28;20495;-80
2022/10/05 03:38:16;;;;;;;1.85;1.67;;;;;;;8.33;76.59;99346.25;5084886;28;20103;-79
2022/10/05 03:40:52;;;;;;;3.38;1.90;;;;;;;8.34;76.63;99347.97;5081320;28;20107;-83
2022/10/05 03:43:48;;;;;;;2.38;1.80;;;;;;;8.32;76.97;99354.03;5091544;28;20099;-82
2022/10/05 03:46:44;;;;;;;2.90;2.05;;;;;;;7.41;76.51;99200.03;5042087;28;20047;-85
2022/10/05 03:49:25;;;;;;;3.70;2.00;;;;;;;7.84;76.78;99287.81;5069902;28;20123;-80
2022/10/05 03:52:03;;;;;;;2.55;1.63;;;;;;;8.01;76.95;99307.56;5039390;28;20060;-82
2022/10/05 03:54:41;;;;;;;4.03;1.90;;;;;;;8.13;76.71;99329.09;5067730;28;20046;-82
2022/10/05 03:57:17;;;;;;;2.97;2.10;;;;;;;8.28;76.68;99350.59;5056498;28;20036;-84
2022/10/05 04:00:26;;;;;;;4.43;2.05;;;;;;;8.25;76.61;99355.81;5088110;28;20044;-81
2022/10/05 04:03:08;;;;;;;2.08;1.80;;;;;;;8.08;77.34;99338.63;5029933;28;20041;-82
2022/10/05 04:05:44;;;;;;;2.70;2.28;;;;;;;8.29;77.19;99357.50;5034673;28;20623;-82
2022/10/05 04:09:18;;;;;;;5.10;2.28;;;;;;;7.68;76.56;99250.78;5082838;28;20133;-81
2022/10/05 04:12:02;;;;;;;5.72;2.00;;;;;;;7.87;76.93;99273.97;5005230;28;20023;-82
2022/10/05 04:14:36;;;;;;;3.42;2.10;;;;;;;7.88;77.16;99283.47;5067209;28;20541;-83
2022/10/05 04:17:20;;;;;;;3.20;1.88;;;;;;;8.24;76.92;99339.38;5064776;28;20054;-80
2022/10/05 04:20:08;;;;;;;2.97;2.10;;;;;;;8.23;77.19;99342.00;5063753;28;20055;-81
2022/10/05 04:22:47;;;;;;;7.80;2.55;;;;;;;8.26;77.22;99340.25;5084686;28;20044;-82
2022/10/05 04:25:19;;;;;;;3.50;2.25;;;;;;;8.19;77.04;99329.94;5066833;28;20044;-82
2022/10/05 04:28:16;;;;;;;2.90;2.42;;;;;;;8.46;77.10;99359.97;5097348;28;20048;-80
2022/10/05 04:30:50;;;;;;;3.25;2.10;;;;;;;8.31;77.25;99336.75;5064445;28;20071;-82
2022/10/05 04:33:16;;;;;;;3.15;2.20;;;;;;;8.05;76.80;99292.00;5105277;28;20063;-82
2022/10/05 04:35:53;;;;;;;3.83;2.10;;;;;;;8.53;76.77;99371.19;5090975;28;20036;-81
2022/10/05 04:38:46;;;;;;;3.72;2.65;;;;;;;8.53;76.88;99360.81;5095377;28;20061;-82
2022/10/05 04:41:42;;;;;;;3.33;2.25;;;;;;;8.49;76.80;99348.78;5107087;28;20028;-80
2022/10/05 04:44:39;;;;;;;3.83;2.58;;;;;;;8.65;76.75;99367.66;5089716;28;20090;-81
2022/10/05 04:47:22;;;;;;;3.63;2.35;;;;;;;8.47;77.22;99317.63;5061116;28;20058;-85
2022/10/05 04:50:07;;;;;;;4.45;2.33;;;;;;;8.79;77.29;99364.94;5072486;28;20097;-81
2022/10/05 04:52:50;;;;;;;5.05;2.70;;;;;;;8.86;76.96;99367.47;5054929;28;20040;-83
2022/10/05 04:56:04;;;;;;;3.72;2.40;;;;;;;8.71;76.95;99345.13;5087770;28;20092;-82
2022/10/05 04:58:37;;;;;;;5.28;3.00;;;;;;;8.89;77.08;99375.22;4995201;28;20048;-81
2022/10/05 05:01:32;;;;;;;5.63;2.60;;;;;;;8.93;76.80;99372.59;5015767;28;20089;-82
2022/10/05 05:04:13;;;;;;;4.80;2.83;;;;;;;8.93;77.09;99375.19;5054533;28;20443;-82
2022/10/05 05:06:59;;;;;;;5.25;2.83;;;;;;;9.02;77.34;99375.13;5057942;28;20036;-83
2022/10/05 05:09:34;;;;;;;6.43;2.55;;;;;;;9.08;77.13;99374.22;5071909;28;20396;-80
2022/10/05 05:12:21;;;;;;;7.15;2.67;;;;;;;9.03;77.00;99379.44;5074623;28;20044;-81
2022/10/05 05:15:09;;;;;;;4.90;2.65;;;;;;;9.02;77.18;99368.19;5063123;28;20127;-81
2022/10/05 05:18:06;;;;;;;3.45;2.53;;;;;;;9.08;76.63;99376.81;5085449;28;20055;-81
2022/10/05 05:20:56;;;;;;;6.03;2.65;;;;;;;9.11;76.57;99376.78;5042702;28;20395;-81
2022/10/05 05:23:38;;;;;;;3.60;2.60;;;;;;;9.23;76.91;99368.84;5085406;28;20040;-83
2022/10/05 05:26:12;;;;;;;4.78;2.53;;;;;;;9.25;76.89;99369.69;5063421;28;20036;-82
2022/10/05 05:28:48;;;;;;;6.30;2.60;;;;;;;9.35;76.52;99367.88;5082529;28;20133;-81
2022/10/05 05:31:45;;;;;;;3.05;2.25;;;;;;;9.38;76.43;99378.22;5088794;28;20050;-82
2022/10/05 05:34:27;;;;;;;6.10;2.70;;;;;;;9.34;76.24;99384.31;5066248;28;20040;-85
2022/10/05 05:37:58;;;;;;;5.10;2.35;;;;;;;8.94;76.35;99331.06;5060091;28;20044;-84
2022/10/05 05:41:00;;;;;;;3.70;2.30;;;;;;;9.03;76.06;99343.13;5063155;28;20095;-84
2022/10/05 05:47:50;;;;;;;6.07;2.50;;;;;;;8.46;76.13;99239.84;5076408;28;20056;-83
2022/10/05 05:51:00;;;;;;;4.50;2.67;;;;;;;9.37;76.07;99376.50;5084041;28;20147;-82
2022/10/05 05:53:47;;;;;;;2.67;2.30;;;;;;;8.33;76.09;99219.22;5057016;28;20051;-83
2022/10/05 05:56:29;;;;;;;2.63;2.20;;;;;;;9.37;76.05;99379.09;5038287;28;20169;-83
2022/10/05 05:59:21;;;;;;;4.53;2.28;;;;;;;9.44;75.98;99382.47;5054074;28;20410;-82
2022/10/05 06:01:56;;;;;;;4.07;2.50;;;;;;;9.29;76.17;99355.81;5081514;28;20104;-81
2022/10/05 06:04:33;;;;;;;4.13;2.30;;;;;;;9.33;75.82;99364.41;5070354;28;21059;-80
2022/10/05 06:07:02;;;;;;;4.63;2.40;;;;;;;9.58;76.17;99387.53;5070972;28;20054;-83
2022/10/05 06:09:34;;;;;;;2.85;2.03;;;;;;;9.44;76.01;99361.72;5070899;28;20617;-82
2022/10/05 06:12:51;;;;;;;3.97;2.40;;;;;;;9.58;75.78;99390.13;5074429;28;20039;-82
2022/10/05 06:15:36;;;;;;;2.78;2.30;;;;;;;9.63;75.83;99378.81;5067998;28;20577;-82
2022/10/05 06:18:10;;;;;;;5.15;2.28;;;;;;;9.87;75.97;99389.78;5064900;28;20048;-80
2022/10/05 06:21:04;;;;;;;2.83;2.30;;;;;;;9.93;75.88;99381.91;5084791;28;20517;-81
2022/10/05 06:23:56;;;;;;;2.60;1.90;;;;;;;9.78;75.93;99336.19;5065687;28;20224;-82
2022/10/05 06:26:32;;;;;;;4.53;1.80;;;;;;;10.25;75.30;99392.75;5073232;28;20040;-81
2022/10/05 06:29:07;;;;;;;2.50;1.27;;;;;;;10.05;74.74;99346.22;5075329;28;20048;-82
2022/10/05 06:31:50;;;;;;;3.42;1.60;;;;;;;10.37;75.26;99404.72;5060176;28;20032;-82
2022/10/05 06:34:22;;;;;;;3.20;1.42;;;;;;;10.35;74.63;99402.16;5094378;28;20185;-81
2022/10/05 06:36:55;;;;;;;2.22;1.40;;;;;;;10.00;74.95;99350.66;5072723;28;20032;-82
2022/10/05 06:39:24;;;;;;;;;;;;;;;10.35;74.55;99409.97;5055813;28;20478;-82
2022/10/05 06:42:15;;;;;;;2.58;1.33;;;;;;;10.46;74.14;99406.34;5066434;28;20015;-81
2022/10/05 06:45:57;;;;;;;2.08;1.30;;;;;;;10.70;74.21;99408.59;5010880;28;20140;-81
2022/10/05 06:49:09;;;;;;;3.08;1.20;;;;;;;10.92;74.04;99425.63;4984232;28;20064;-81
2022/10/05 06:52:12;;;;;;;1.98;1.30;;;;;;;10.77;73.99;99367.72;5089635;28;20036;-85
2022/10/05 06:54:45;;;;;;;;;;;;;;;11.30;73.42;99417.13;5088982;28;20048;-86
2022/10/05 06:57:44;;;;;;;1.27;1.00;;;;;;;11.50;73.04;99422.88;5070066;28;19938;-86
2022/10/05 07:00:37;;;;;;;1.23;1.00;;;;;;;11.64;72.50;99420.84;5081322;28;20567;-87
2022/10/05 07:03:21;;;;;;;0.98;0.88;;;;;;;11.86;72.37;99417.81;5093056;28;20060;-86
2022/10/05 07:05:55;;;;;;;1.65;1.20;;;;;;;11.66;71.25;99387.81;5065601;28;20077;-86
2022/10/05 07:08:40;;;;;;;1.48;1.13;;;;;;;11.71;71.46;99432.88;5078717;28;20062;-86
2022/10/05 07:11:24;;;;;;;0.98;0.90;;;;;;;11.47;71.45;99407.31;5075350;28;20078;-86
2022/10/05 07:14:13;;;;;;;1.10;0.98;;;;;;;11.75;71.22;99451.94;5065707;28;20043;-85
2022/10/05 07:17:07;;;;;;;2.47;1.00;;;;;;;11.83;70.39;99436.13;5071570;28;20051;-86
2022/10/05 07:19:51;;;;;;;1.65;1.15;;;;;;;11.74;70.06;99442.38;5105555;28;20040;-85
2022/10/05 07:22:36;;;;;;;1.33;1.13;;;;;;;11.49;69.93;99444.59;5101458;28;20047;-82
2022/10/05 07:25:21;;;;;;;0.98;0.85;;;;;;;11.16;69.83;99413.94;5061671;28;20082;-83
2022/10/05 07:28:02;;;;;;;2.13;1.08;;;;;;;10.88;69.65;99375.34;5087227;28;20414;-82
2022/10/05 07:30:37;;;;;;;2.60;1.15;;;;;;;11.43;69.93;99458.63;5087092;22;20049;-80
2022/10/05 07:33:44;;;;;;;1.70;1.20;;;;;;;11.26;69.69;99423.28;5047324;28;20045;-81
2022/10/05 07:39:39;;;;;;;1.20;1.10;;;;;;;11.60;69.47;99469.59;5020408;28;20045;-83
2022/10/05 07:42:30;;;;;;;2.45;1.10;;;;;;;11.14;68.96;99387.91;5025743;28;20059;-84
2022/10/05 07:45:08;;;;;;;1.90;1.00;;;;;;;11.63;68.70;99479.06;5043696;28;20041;-83
2022/10/05 07:47:44;;;;;;;1.02;0.90;;;;;;;11.44;68.74;99469.00;5032302;28;20040;-82
2022/10/05 07:50:21;;;;;;;2.53;1.10;;;;;;;11.19;68.42;99449.47;5036489;28;20049;-82
2022/10/05 07:53:01;;;;;;;1.83;1.20;;;;;;;11.30;68.53;99481.41;5040507;28;20041;-81
2022/10/05 07:55:43;;;;;;;1.52;1.25;;;;;;;11.13;68.83;99466.06;5043406;28;20048;-80
2022/10/05 07:58:22;;;;;;;1.90;1.48;;;;;;;11.24;68.81;99491.91;5046816;28;20068;-81
2022/10/05 08:00:57;;;;;;;1.73;1.17;;;;;;;10.13;68.58;99300.19;5034088;28;20049;-81
2022/10/05 08:03:52;;;;;;;1.58;0.90;;;;;;;11.24;68.77;99491.91;5018126;28;20032;-82
2022/10/05 08:06:31;;;;;;;3.40;1.33;;;;;;;11.32;68.58;99482.25;5038670;28;20034;-84
2022/10/05 08:09:03;;;;;;;1.60;1.38;;;;;;;11.48;68.54;99497.59;5035140;28;20046;-83
2022/10/05 08:11:50;;;;;;;1.00;0.90;;;;;;;11.14;68.44;99437.38;5041181;28;20059;-80
2022/10/05 08:14:37;;;;;;;1.50;1.20;;;;;;;11.52;68.15;99507.94;5032214;28;20029;-82
2022/10/05 08:17:59;;;;;;;1.73;1.35;;;;;;;11.56;68.35;99504.41;4894059;29;20057;-81
2022/10/05 08:21:01;;;;;;;1.10;1.00;;;;;;;11.51;68.19;99497.56;5021315;23;20075;-81
2022/10/05 08:23:50;;;;;;;2.40;1.20;;;;;;;11.60;68.09;99507.78;5376934;23;20024;-82
2022/10/05 08:26:45;;;;;;;4.18;1.52;;;;;;;11.38;68.57;99450.00;4914223;29;20110;-81
2022/10/05 08:29:57;;;;;;;2.53;1.60;;;;;;;12.15;68.89;99507.69;4901282;29;20072;-80
2022/10/05 08:32:29;;;;;;;4.13;1.77;;;;;;;12.16;68.37;99441.59;4867321;29;20116;-82
2022/10/05 08:35:24;;;;;;;2.50;1.67;;;;;;;12.79;67.75;99501.97;4892051;29;20036;-81
2022/10/05 08:37:57;;;;;;;2.22;1.40;;;;;;;12.75;67.56;99487.28;4905713;29;20501;-81
2022/10/05 08:40:48;;;;;;;1.90;1.00;;;;;;;12.82;67.35;99496.69;4884837;29;20062;-83
2022/10/05 08:43:58;;;;;;;1.40;1.30;;;;;;;11.92;66.93;99377.75;4883645;29;20044;-81
2022/10/05 08:46:33;;;;;;;1.45;1.35;;;;;;;12.63;66.74;99504.06;4885565;29;20151;-79
2022/10/05 08:49:36;;;;;;;1.65;1.30;;;;;;;12.48;66.49;99507.88;4896367;29;20625;-80
2022/10/05 08:52:33;;;;;;;2.45;1.40;;;;;;;12.27;66.73;99510.03;4883808;29;20037;-81
2022/10/05 08:55:52;;;;;;;1.58;1.00;;;;;;;12.25;67.02;99519.63;4885157;29;20052;-81
2022/10/05 08:58:42;;;;;;;1.20;0.93;;;;;;;12.74;66.90;99504.72;4830725;29;20064;-82
2022/10/05 09:01:26;;;;;;;2.20;1.30;;;;;;;13.36;67.87;99476.22;4898051;29;20108;-81
2022/10/05 09:04:22;;;;;;;1.08;0.77;;;;;;;14.12;66.77;99508.28;4902932;29;20079;-81
2022/10/05 09:07:24;;;;;;;0.80;0.80;;;;;;;14.84;67.76;99439.81;4906990;29;20479;-79
2022/10/05 09:09:56;;;;;;;1.30;0.90;;;;;;;17.34;67.81;99498.13;4866681;29;20047;-83
2022/10/05 09:12:37;;;;;;;3.25;1.00;;;;;;;17.64;62.26;99495.97;4883641;29;20060;-82
2022/10/05 09:15:22;;;;;;;3.80;2.25;;;;;;;16.90;60.98;99494.59;4884026;29;20500;-81
2022/10/05 09:18:13;;;;;;;2.75;2.03;;;;;;;16.08;59.88;99502.94;4901069;29;20052;-81
2022/10/05 09:21:30;;;;;;;2.95;2.30;;;;;;;14.58;60.06;99415.28;4902867;29;20040;-81
2022/10/05 09:24:45;;;;;;;1.83;1.30;;;;;;;15.12;61.11;99508.78;4877125;29;20068;-81
2022/10/05 09:27:31;;;;;;;3.38;1.30;;;;;;;15.03;60.62;99476.75;4866051;29;20053;-80
2022/10/05 09:30:18;;;;;;;1.45;1.20;;;;;;;15.06;60.04;99515.09;4875307;29;20033;-80
2022/10/05 09:33:03;;;;;;;1.30;0.90;;;;;;;14.78;59.93;99505.50;4894325;29;20398;-82
2022/10/05 09:35:38;;;;;;;2.10;1.52;;;;;;;14.47;59.55;99524.72;4880234;29;20037;-82
2022/10/05 09:38:30;;;;;;;1.95;1.02;;;;;;;13.47;59.68;99427.22;4906174;29;20049;-83
2022/10/05 09:41:24;;;;;;;2.35;1.55;;;;;;;13.79;59.66;99535.28;4905591;29;20044;-81
2022/10/05 09:44:46;;;;;;;2.53;1.55;;;;;;;13.58;60.43;99535.84;4902310;29;20483;-80
2022/10/05 09:47:58;;;;;;;1.92;1.08;;;;;;;13.26;60.75;99540.94;4872114;29;20053;-82
2022/10/05 09:51:03;;;;;;;3.17;1.00;;;;;;;13.15;60.90;99541.19;4877673;29;20045;-80
2022/10/05 09:53:39;;;;;;;3.28;1.40;;;;;;;13.41;61.42;99531.91;4888611;29;20049;-80
2022/10/05 09:57:02;;;;;;;1.33;1.00;;;;;;;14.43;61.84;99536.16;4907865;29;20029;-79
2022/10/05 09:59:30;;;;;;;;;;;;;;;15.03;60.69;99539.63;4856087;29;20052;-81
2022/10/05 10:02:40;;;;;;;0.90;0.80;;;;;;;15.03;60.18;99531.78;4897253;29;19984;-79
2022/10/05 10:05:41;;;;;;;1.02;0.82;;;;;;;15.33;59.77;99533.47;4889289;29;20048;-82
2022/10/05 10:08:35;;;;;;;1.13;0.88;;;;;;;15.52;59.51;99545.03;4890915;29;20064;-80
2022/10/05 10:11:10;;;;;;;2.25;0.80;;;;;;;15.33;58.21;99543.94;4867608;29;20056;-83
2022/10/05 10:14:01;;;;;;;1.05;0.60;;;;;;;15.12;58.95;99542.84;4900205;29;20493;-83
2022/10/05 10:16:52;;;;;;;0.60;0.60;;;;;;;15.21;58.95;99543.44;4879568;29;20039;-81
2022/10/05 10:20:08;;;;;;;1.42;0.60;;;;;;;15.09;58.45;99553.47;4892251;29;20076;-80
2022/10/05 10:22:56;;;;;;;1.05;0.80;;;;;;;15.26;57.18;99560.75;4880980;29;20095;-80
2022/10/05 10:26:16;;;;;;;3.75;1.00;;;;;;;14.65;57.95;99457.84;4881933;29;20056;-83
2022/10/05 10:29:06;;;;;;;2.45;1.13;;;;;;;15.45;57.71;99567.13;4885338;29;20064;-82
2022/10/05 10:31:32;;;;;;;4.05;1.00;;;;;;;15.68;57.62;99572.53;4885340;29;20040;-82
2022/10/05 10:34:20;;;;;;;2.17;0.77;;;;;;;16.13;57.26;99569.25;4900683;29;20051;-81
2022/10/05 10:37:16;;;;;;;1.40;0.90;;;;;;;16.17;56.29;99570.88;4877501;29;20037;-82
2022/10/05 10:40:13;;;;;;;0.60;0.60;;;;;;;15.77;56.11;99567.81;4885085;29;20143;-81
2022/10/05 10:46:53;;;;;;;0.43;0.40;;;;;;;14.63;56.04;99580.09;4896291;29;20041;-82
2022/10/05 10:49:51;;;;;;;1.92;0.50;;;;;;;14.30;56.95;99585.38;4916484;29;20049;-80
2022/10/05 10:53:37;;;;;;;0.98;0.50;;;;;;;13.97;57.77;99590.66;4879314;29;20028;-82
2022/10/05 10:56:44;;;;;;;0.40;0.40;;;;;;;13.88;58.07;99590.88;4907388;29;20044;-83
2022/10/05 10:59:33;;;;;;;2.13;1.10;;;;;;;13.51;57.94;99603.09;4884135;29;20381;-81
2022/10/05 11:02:47;;;;;;;2.03;0.95;;;;;;;12.03;58.32;99428.78;4898832;29;20057;-82
2022/10/05 11:05:45;;;;;;;1.63;0.75;;;;;;;12.76;59.09;99607.34;4885604;29;20076;-83
2022/10/05 11:08:22;;;;;;;2.28;1.23;;;;;;;12.32;59.70;99560.38;4903712;29;20051;-84
2022/10/05 11:11:26;;;;;;;2.42;1.27;;;;;;;12.43;59.90;99608.91;4886956;29;20051;-83
2022/10/05 11:14:33;;;;;;;2.93;1.20;;;;;;;12.34;61.08;99621.22;4883719;29;20053;-81
2022/10/05 11:17:08;;;;;;;2.05;1.08;;;;;;;12.41;60.78;99615.91;4886383;29;20689;-85
2022/10/05 11:20:04;;;;;;;2.95;1.30;;;;;;;12.43;61.64;99614.13;4885604;29;20045;-81
2022/10/05 11:22:51;;;;;;;2.30;1.50;;;;;;;12.42;61.93;99618.47;4885501;29;20024;-84
2022/10/05 11:25:51;;;;;;;1.77;1.23;;;;;;;12.38;61.56;99629.00;4885417;29;20068;-81
2022/10/05 11:28:51;;;;;;;1.60;1.00;;;;;;;12.23;61.99;99635.34;4900130;29;20052;-81
2022/10/05 11:31:52;;;;;;;1.92;1.20;;;;;;;12.10;62.37;99634.72;4873809;29;20064;-83
2022/10/05 11:35:02;;;;;;;2.25;1.10;;;;;;;12.03;62.80;99645.25;4885869;29;20053;-81
2022/10/05 11:37:56;;;;;;;2.15;1.23;;;;;;;11.92;63.11;99649.75;4906346;29;20380;-81
2022/10/05 11:40:35;;;;;;;2.38;1.10;;;;;;;11.93;63.47;99656.69;4879080;29;20096;-81
2022/10/05 11:43:36;;;;;;;3.90;1.40;;;;;;;11.92;63.49;99659.34;4887944;29;20148;-81
2022/10/05 11:46:20;;;;;;;2.60;1.20;;;;;;;11.92;63.98;99647.16;4888525;29;20782;-83
2022/10/05 11:49:04;;;;;;;3.25;1.40;;;;;;;11.35;63.99;99560.34;4893062;29;20041;-82
2022/10/05 11:51:52;;;;;;;3.22;1.80;;;;;;;11.96;64.71;99667.09;4899979;29;20084;-83
2022/10/05 11:54:42;;;;;;;2.17;1.55;;;;;;;12.07;64.63;99664.31;4903008;29;20067;-81
2022/10/05 11:57:13;;;;;;;4.07;2.10;;;;;;;11.83;64.54;99621.22;4896695;29;20057;-82
2022/10/05 11:59:51;;;;;;;2.90;1.70;;;;;;;11.96;64.75;99656.66;4879209;29;20044;-81
2022/10/05 12:02:39;;;;;;;2.13;1.45;;;;;;;11.88;64.98;99666.34;4896540;29;20059;-83
2022/10/05 12:05:14;;;;;;;4.13;1.40;;;;;;;11.70;64.78;99644.91;4894771;29;20048;-81
2022/10/05 12:08:20;;;;;;;2.05;1.20;;;;;;;11.74;65.21;99663.94;4891090;29;20064;-81
2022/10/05 12:11:30;;;;;;;4.80;1.38;;;;;;;11.81;65.08;99662.97;4889693;29;20049;-81
2022/10/05 12:14:02;;;;;;;1.50;1.02;;;;;;;11.77;65.55;99668.28;4882796;29;20045;-80
2022/10/05 12:16:38;;;;;;;2.78;1.58;;;;;;;11.39;65.55;99595.00;4875927;29;20677;-81
2022/10/05 12:19:22;;;;;;;3.13;1.50;;;;;;;11.90;65.37;99681.09;4876469;29;20041;-83
2022/10/05 12:21:55;;;;;;;3.65;1.33;;;;;;;11.95;65.41;99687.94;4877877;29;20140;-82
2022/10/05 12:25:05;;;;;;;4.93;1.88;;;;;;;11.99;65.35;99694.88;4892001;29;20140;-81
2022/10/05 12:27:45;;;;;;;2.95;1.50;;;;;;;11.78;64.96;99662.19;4880161;29;20521;-80
2022/10/05 12:30:40;;;;;;;3.50;1.70;;;;;;;11.85;65.50;99687.25;4890050;29;20045;-81
2022/10/05 12:33:17;;;;;;;3.22;1.67;;;;;;;11.90;65.43;99681.09;4873157;29;20056;-80
2022/10/05 12:35:46;;;;;;;2.17;1.10;;;;;;;12.01;65.52;99687.88;4881835;29;20041;-82
2022/10/05 12:38:16;;;;;;;1.80;1.23;;;;;;;12.10;65.35;99686.88;4900416;29;20093;-83
2022/10/05 12:40:57;;;;;;;1.20;1.10;;;;;;;12.03;65.14;99684.34;4899355;29;20053;-82
2022/10/05 12:43:52;;;;;;;1.33;0.95;;;;;;;12.01;64.70;99696.59;4886691;29;20504;-80
2022/10/05 12:46:31;;;;;;;2.30;1.30;;;;;;;11.91;65.27;99700.19;4886889;29;20616;-83
2022/10/05 12:49:13;;;;;;;2.95;1.20;;;;;;;12.00;65.46;99710.50;4883220;29;20058;-83
2022/10/05 12:51:54;;;;;;;2.58;1.20;;;;;;;11.61;65.28;99637.22;4884739;29;20457;-82
2022/10/05 12:54:40;;;;;;;1.50;0.88;;;;;;;11.71;65.45;99625.78;4885535;29;20064;-83
2022/10/05 12:57:14;;;;;;;0.93;0.70;;;;;;;11.50;65.46;99574.84;4910234;29;20039;-84
2022/10/05 12:59:43;;;;;;;1.77;0.80;;;;;;;12.40;65.54;99698.50;4891490;29;20055;-82
2022/10/05 13:02:33;;;;;;;1.38;0.65;;;;;;;12.40;65.26;99701.13;4885766;29;20057;-83
2022/10/05 13:05:10;;;;;;;1.88;0.80;;;;;;;12.11;65.13;99666.00;4888901;29;20057;-81
2022/10/05 13:07:57;;;;;;;1.23;0.90;;;;;;;12.17;65.41;99706.75;4893919;29;20052;-82
2022/10/05 13:10:42;;;;;;;2.20;0.90;;;;;;;11.97;64.71;99704.44;4878019;29;20067;-83
2022/10/05 13:13:23;;;;;;;2.33;0.93;;;;;;;11.42;65.60;99632.28;4879631;29;20148;-83
2022/10/05 13:16:16;;;;;;;1.20;1.00;;;;;;;11.86;65.55;99717.63;4878446;29;20083;-81
2022/10/05 13:19:08;;;;;;;2.42;1.05;;;;;;;11.80;65.43;99709.94;4879428;29;20087;-81
2022/10/05 13:21:43;;;;;;;;;;;;;;;11.82;65.81;99706.41;4894197;29;20068;-82
2022/10/05 13:24:32;;;;;;;1.92;1.05;;;;;;;11.64;65.76;99676.25;4882625;29;19923;-81